createdAt,value
2022-11-03T00:01:42.371Z,9.53
2022-11-03T00:06:46.513Z,9.48
2022-11-03T00:11:53.194Z,9.30
2022-11-03T00:17:01.418Z,9.31
2022-11-03T00:22:04.852Z,9.33
2022-11-03T00:27:09.201Z,9.36
2022-11-03T00:32:19.098Z,9.32
2022-11-03T00:37:21.177Z,9.29
2022-11-03T00:42:23.096Z,9.20
2022-11-03T00:47:24.862Z,9.14
2022-11-03T00:52:26.717Z,9.13
2022-11-03T00:57:28.620Z,8.99
2022-11-03T01:02:30.761Z,8.85
2022-11-03T01:07:32.799Z,8.78
2022-11-03T01:12:40.104Z,8.70
2022-11-03T01:17:42.068Z,8.56
2022-11-03T01:22:43.932Z,8.49
2022-11-03T01:27:45.926Z,8.01
2022-11-03T01:32:48.786Z,8.09
2022-11-03T01:37:53.407Z,8.16
2022-11-03T01:43:44.642Z,8.19
2022-11-03T01:49:02.883Z,8.09
2022-11-03T01:54:40.577Z,8.01
2022-11-03T02:00:34.334Z,7.95
2022-11-03T02:05:57.977Z,8.00
2022-11-03T02:11:20.376Z,7.89
2022-11-03T02:16:27.037Z,7.93
2022-11-03T02:21:46.389Z,7.87
2022-11-03T02:26:48.922Z,7.81
2022-11-03T02:32:12.230Z,7.84
2022-11-03T02:37:20.461Z,7.78
2022-11-03T02:42:25.049Z,7.83
2022-11-03T02:47:29.617Z,7.82
2022-11-03T02:52:43.147Z,7.80
2022-11-03T02:57:59.709Z,7.86
2022-11-03T03:03:17.613Z,7.87
2022-11-03T03:08:21.529Z,7.85
2022-11-03T03:13:24.824Z,7.94
2022-11-03T03:18:33.356Z,7.88
2022-11-03T03:23:41.359Z,7.90
2022-11-03T03:28:53.671Z,7.90
2022-11-03T03:34:04.447Z,7.93
2022-11-03T03:39:11.160Z,7.90
2022-11-03T03:44:13.971Z,7.79
2022-11-03T03:49:15.842Z,7.75
2022-11-03T03:54:17.805Z,7.77
2022-11-03T03:59:19.593Z,7.78
2022-11-03T04:04:21.385Z,7.75
2022-11-03T04:09:23.180Z,7.69
2022-11-03T04:14:54.400Z,7.68
2022-11-03T04:20:14.772Z,7.68
2022-11-03T04:25:16.720Z,7.74
2022-11-03T04:30:20.932Z,7.58
2022-11-03T04:35:25.122Z,7.60
2022-11-03T04:40:27.649Z,7.61
2022-11-03T04:45:31.498Z,7.66
2022-11-03T04:50:33.261Z,7.78
2022-11-03T04:55:35.237Z,7.92
2022-11-03T05:00:39.977Z,7.86
2022-11-03T05:05:41.800Z,7.85
2022-11-03T05:10:43.712Z,7.96
2022-11-03T05:15:46.021Z,7.95
2022-11-03T05:20:55.005Z,7.94
2022-11-03T05:25:57.867Z,8.05
2022-11-03T05:30:59.632Z,8.08
2022-11-03T05:36:06.074Z,8.09
2022-11-03T05:41:26.167Z,8.12
2022-11-03T05:46:33.348Z,8.11
2022-11-03T05:51:39.994Z,8.21
2022-11-03T05:56:41.673Z,8.16
2022-11-03T06:01:43.604Z,8.19
2022-11-03T06:07:09.901Z,8.25
2022-11-03T06:12:18.127Z,8.36
2022-11-03T06:17:26.103Z,8.51
2022-11-03T06:22:36.201Z,8.56
2022-11-03T06:27:38.912Z,8.71
2022-11-03T06:32:40.774Z,8.87
2022-11-03T06:37:43.152Z,8.97
2022-11-03T06:42:44.872Z,9.05
2022-11-03T06:47:47.340Z,9.16
2022-11-03T06:52:50.154Z,9.31
2022-11-03T06:58:14.723Z,9.34
2022-11-03T07:03:25.028Z,9.46
2022-11-03T07:08:36.326Z,9.62
2022-11-03T07:13:41.312Z,9.73
2022-11-03T07:18:44.191Z,9.77
2022-11-03T07:23:47.205Z,9.89
2022-11-03T07:28:49.392Z,10.04
2022-11-03T07:33:58.531Z,9.99
2022-11-03T07:39:01.539Z,10.11
2022-11-03T07:44:03.848Z,9.87
2022-11-03T07:49:09.937Z,10.20
2022-11-03T07:54:24.816Z,10.47
2022-11-03T07:59:39.213Z,10.67
2022-11-03T08:04:40.991Z,10.92
2022-11-03T08:09:43.113Z,11.04
2022-11-03T08:14:44.894Z,11.28
2022-11-03T08:19:46.745Z,11.51
2022-11-03T08:24:51.011Z,11.86
2022-11-03T08:29:56.336Z,11.98
2022-11-03T08:35:04.153Z,12.10
2022-11-03T08:40:10.948Z,12.22
2022-11-03T08:45:22.463Z,12.32
2022-11-03T08:50:27.819Z,12.53
2022-11-03T08:55:35.412Z,12.73
2022-11-03T09:00:50.657Z,12.85
2022-11-03T09:06:13.185Z,12.99
2022-11-03T09:12:31.311Z,13.16
2022-11-03T09:23:25.090Z,13.42
2022-11-03T09:28:37.487Z,13.63
2022-11-03T09:34:03.852Z,13.87
2022-11-03T09:39:06.936Z,14.00
2022-11-03T10:31:26.244Z,14.83
2022-11-03T10:53:42.152Z,15.25
2022-11-03T13:33:15.102Z,16.84
2022-11-03T13:38:22.016Z,16.73
2022-11-03T14:12:40.031Z,16.71
2022-11-03T14:23:52.162Z,16.58
2022-11-03T20:22:28.154Z,11.62
2022-11-03T20:27:57.965Z,11.52
2022-11-03T20:33:03.160Z,11.45
2022-11-03T20:38:26.398Z,11.41
2022-11-03T20:43:41.788Z,11.35
2022-11-03T20:48:49.421Z,11.26
2022-11-03T20:53:51.825Z,11.19
2022-11-03T21:10:34.754Z,11.27
2022-11-03T21:16:23.533Z,11.26
2022-11-03T21:21:36.251Z,11.42
2022-11-03T21:32:32.094Z,11.47
2022-11-03T21:38:04.202Z,11.49
2022-11-03T21:49:20.534Z,11.63
2022-11-03T22:00:51.283Z,11.52
2022-11-03T22:06:34.360Z,11.41
2022-11-03T22:23:37.403Z,11.35
2022-11-03T22:29:26.828Z,11.39
2022-11-03T22:59:42.538Z,11.07
2022-11-03T23:10:53.497Z,11.01
2022-11-03T23:16:41.393Z,11.03
2022-11-03T23:22:14.354Z,11.06
2022-11-03T23:27:23.545Z,11.06
2022-11-03T23:33:05.243Z,11.16
2022-11-03T23:43:41.259Z,11.23
